createdAt,value
2018-10-16T00:01:39.522Z,11.20
2018-10-16T00:04:09.301Z,10.70
2018-10-16T00:06:40.949Z,9.00
2018-10-16T00:09:11.803Z,9.90
2018-10-16T00:11:53.683Z,10.00
2018-10-16T00:14:28.985Z,10.83
2018-10-16T00:16:58.777Z,9.10
2018-10-16T00:19:29.617Z,10.37
2018-10-16T00:22:01.274Z,9.70
2018-10-16T00:24:30.858Z,9.87
2018-10-16T00:27:00.710Z,9.30
2018-10-16T00:29:33.841Z,10.33
2018-10-16T00:32:03.450Z,9.73
2018-10-16T00:34:32.973Z,10.50
2018-10-16T00:37:03.561Z,10.30
2018-10-16T00:39:34.397Z,9.77
2018-10-16T00:42:09.315Z,9.67
2018-10-16T00:44:41.073Z,10.83
2018-10-16T00:47:14.370Z,10.83
2018-10-16T00:49:44.333Z,9.70
2018-10-16T00:52:15.254Z,11.10
2018-10-16T00:54:45.945Z,10.20
2018-10-16T00:57:15.857Z,10.97
2018-10-16T00:59:46.850Z,11.47
2018-10-16T01:02:18.622Z,10.97
2018-10-16T01:04:50.430Z,9.60
2018-10-16T01:07:20.084Z,10.70
2018-10-16T01:09:49.621Z,10.30
2018-10-16T01:12:19.206Z,10.00
2018-10-16T01:14:49.150Z,11.27
2018-10-16T01:17:21.058Z,9.63
2018-10-16T01:19:50.729Z,9.97
2018-10-16T01:22:25.859Z,10.70
2018-10-16T01:24:55.658Z,10.60
2018-10-16T01:27:26.554Z,10.27
2018-10-16T01:29:57.218Z,10.17
2018-10-16T01:32:27.117Z,9.77
2018-10-16T01:34:57.825Z,10.10
2018-10-16T01:37:28.324Z,10.50
2018-10-16T01:40:04.401Z,10.10
2018-10-16T01:42:40.704Z,9.70
2018-10-16T01:45:10.988Z,10.70
2018-10-16T01:47:42.985Z,10.50
2018-10-16T01:50:12.997Z,9.90
2018-10-16T01:52:46.521Z,10.30
2018-10-16T01:55:17.517Z,10.47
2018-10-16T01:57:48.261Z,9.93
2018-10-16T02:00:20.601Z,10.73
2018-10-16T02:02:52.293Z,11.13
2018-10-16T02:05:23.413Z,10.93
2018-10-16T02:07:54.429Z,9.37
2018-10-16T02:10:36.372Z,11.90
2018-10-16T02:13:08.141Z,11.33
2018-10-16T02:15:37.846Z,10.80
2018-10-16T02:18:07.561Z,11.10
2018-10-16T02:20:39.434Z,11.40
2018-10-16T02:23:10.477Z,10.63
2018-10-16T02:25:43.829Z,11.47
2018-10-16T02:28:19.501Z,12.77
2018-10-16T02:30:52.666Z,11.10
2018-10-16T02:33:22.649Z,10.40
2018-10-16T02:35:56.172Z,12.07
2018-10-16T02:38:26.831Z,10.87
2018-10-16T02:40:56.770Z,10.77
2018-10-16T02:43:27.938Z,11.23
2018-10-16T02:45:59.658Z,9.90
2018-10-16T02:48:29.585Z,10.77
2018-10-16T02:50:59.366Z,11.50
2018-10-16T02:53:35.194Z,10.97
2018-10-16T02:56:05.072Z,11.90
2018-10-16T02:58:36.053Z,11.75
2018-10-16T03:01:06.369Z,12.33
2018-10-16T03:03:38.125Z,12.10
2018-10-16T03:06:13.822Z,11.10
2018-10-16T03:08:47.848Z,11.85
2018-10-16T03:11:18.057Z,12.98
2018-10-16T03:13:47.786Z,11.97
2018-10-16T03:16:17.365Z,11.10
2018-10-16T03:18:47.202Z,10.55
2018-10-16T03:21:20.333Z,11.37
2018-10-16T03:23:49.909Z,11.50
2018-10-16T03:26:37.437Z,11.90
2018-10-16T03:29:07.881Z,13.67
2018-10-16T03:31:37.725Z,11.48
2018-10-16T03:34:10.945Z,11.87
2018-10-16T03:36:45.321Z,13.43
2018-10-16T03:39:16.988Z,11.35
2018-10-16T03:41:52.665Z,12.03
2018-10-16T03:44:34.717Z,10.60
2018-10-16T03:47:05.553Z,11.87
2018-10-16T03:49:35.121Z,11.90
2018-10-16T03:52:05.929Z,12.40
2018-10-16T03:54:36.866Z,10.93
2018-10-16T03:57:06.682Z,12.10
2018-10-16T03:59:37.621Z,12.25
2018-10-16T04:02:10.501Z,12.43
2018-10-16T04:04:41.165Z,12.80
2018-10-16T04:07:13.965Z,14.28
2018-10-16T04:09:44.925Z,13.53
2018-10-16T04:12:14.828Z,13.78
2018-10-16T04:14:46.589Z,13.13
2018-10-16T04:17:17.239Z,13.80
2018-10-16T04:19:53.577Z,12.47
2018-10-16T04:22:25.617Z,12.03
2018-10-16T04:24:57.272Z,12.37
2018-10-16T04:27:26.893Z,12.15
2018-10-16T04:29:57.777Z,12.23
2018-10-16T04:32:27.501Z,12.65
2018-10-16T04:34:57.081Z,11.30
2018-10-16T04:37:32.645Z,11.60
2018-10-16T04:40:03.637Z,12.53
2018-10-16T04:42:33.629Z,12.35
2018-10-16T04:45:03.473Z,13.60
2018-10-16T04:47:39.379Z,12.95
2018-10-16T04:50:10.548Z,12.88
2018-10-16T04:52:41.133Z,12.90
2018-10-16T04:55:11.126Z,15.23
2018-10-16T04:57:41.988Z,14.90
2018-10-16T05:00:12.584Z,13.88
2018-10-16T05:02:42.498Z,14.23
2018-10-16T05:05:20.385Z,13.93
2018-10-16T05:07:50.693Z,13.73
2018-10-16T05:10:21.445Z,15.00
2018-10-16T05:13:01.794Z,14.03
2018-10-16T05:15:33.782Z,14.53
2018-10-16T05:18:03.371Z,15.20
2018-10-16T05:20:33.229Z,14.83
2018-10-16T05:23:02.876Z,14.90
2018-10-16T05:25:35.456Z,14.70
2018-10-16T05:28:08.940Z,14.18
2018-10-16T05:30:42.172Z,15.68
2018-10-16T05:33:11.645Z,14.27
2018-10-16T05:35:42.361Z,14.63
2018-10-16T05:38:15.548Z,15.50
2018-10-16T05:40:49.160Z,13.90
2018-10-16T05:43:18.881Z,15.03
2018-10-16T05:45:49.796Z,15.50
2018-10-16T05:48:20.644Z,14.80
2018-10-16T05:50:52.513Z,15.88
2018-10-16T05:53:25.280Z,15.65
2018-10-16T05:56:01.937Z,17.07
2018-10-16T05:58:31.732Z,16.23
2018-10-16T06:01:01.585Z,16.93
2018-10-16T06:03:31.421Z,16.17
2018-10-16T06:06:02.249Z,17.17
2018-10-16T06:08:33.884Z,15.47
2018-10-16T06:11:03.396Z,17.32
2018-10-16T06:13:34.109Z,18.70
2018-10-16T06:16:05.788Z,18.00
2018-10-16T06:18:35.297Z,15.10
2018-10-16T06:21:04.921Z,16.07
2018-10-16T06:23:34.466Z,16.80
2018-10-16T06:26:04.992Z,16.90
2018-10-16T06:28:48.904Z,16.10
2018-10-16T06:31:19.701Z,15.87
2018-10-16T06:33:53.943Z,16.17
2018-10-16T06:36:24.561Z,16.33
2018-10-16T06:39:00.069Z,16.90
2018-10-16T06:41:30.971Z,17.10
2018-10-16T06:44:01.494Z,18.20
2018-10-16T06:46:31.238Z,18.60
2018-10-16T06:49:02.056Z,18.87
2018-10-16T06:51:31.833Z,17.83
2018-10-16T06:54:01.373Z,18.13
2018-10-16T06:56:31.069Z,18.27
2018-10-16T06:59:01.613Z,21.17
2018-10-16T07:01:32.405Z,18.87
2018-10-16T07:04:01.993Z,18.00
2018-10-16T07:06:41.880Z,17.63
2018-10-16T07:09:15.341Z,17.43
2018-10-16T07:11:57.280Z,16.70
2018-10-16T07:14:28.057Z,16.17
2018-10-16T07:16:58.741Z,16.10
2018-10-16T07:19:28.509Z,15.77
2018-10-16T07:22:02.629Z,16.27
2018-10-16T07:24:32.469Z,15.90
2018-10-16T07:27:02.077Z,16.23
2018-10-16T07:29:33.818Z,14.57
2018-10-16T07:32:04.041Z,14.93
2018-10-16T07:34:39.394Z,14.40
2018-10-16T07:37:10.221Z,15.80
2018-10-16T07:39:39.981Z,15.30
2018-10-16T07:42:09.742Z,16.50
2018-10-16T07:44:41.596Z,18.00
2018-10-16T07:47:15.872Z,17.53
2018-10-16T07:49:48.781Z,17.40
2018-10-16T07:52:18.485Z,17.60
2018-10-16T07:54:49.233Z,16.40
2018-10-16T07:57:19.100Z,16.80
2018-10-16T07:59:53.989Z,15.97
2018-10-16T08:02:23.783Z,15.00
2018-10-16T08:04:53.388Z,16.80
2018-10-16T08:07:24.128Z,17.83
2018-10-16T08:09:59.281Z,15.50
2018-10-16T08:12:28.873Z,16.40
2018-10-16T08:15:01.861Z,13.80
2018-10-16T08:17:31.661Z,12.77
2018-10-16T08:20:01.486Z,13.20
2018-10-16T08:22:31.289Z,14.60
2018-10-16T08:25:01.116Z,14.63
2018-10-16T08:27:30.705Z,13.47
2018-10-16T08:30:00.432Z,13.80
2018-10-16T08:32:30.236Z,13.83
2018-10-16T08:35:00.009Z,12.00
2018-10-16T08:37:40.737Z,12.87
2018-10-16T08:40:17.881Z,12.40
2018-10-16T08:43:26.809Z,11.47
2018-10-16T08:46:14.616Z,12.10
2018-10-16T08:49:04.853Z,12.77
2018-10-16T08:51:57.296Z,11.73
2018-10-16T08:54:26.840Z,13.00
2018-10-16T08:56:56.608Z,12.77
2018-10-16T08:59:28.339Z,12.33
2018-10-16T09:01:59.252Z,13.30
2018-10-16T09:04:32.097Z,11.60
2018-10-16T09:07:01.717Z,12.17
2018-10-16T09:09:31.505Z,12.50
2018-10-16T09:12:01.325Z,12.23
2018-10-16T09:14:36.008Z,12.23
2018-10-16T09:17:05.881Z,12.20
2018-10-16T09:19:37.568Z,11.03
2018-10-16T09:22:08.141Z,11.67
2018-10-16T09:24:37.891Z,10.33
2018-10-16T09:27:09.420Z,10.20
2018-10-16T09:29:39.197Z,10.53
2018-10-16T09:32:09.851Z,10.17
2018-10-16T09:34:39.541Z,9.50
2018-10-16T09:37:13.573Z,10.57
2018-10-16T09:39:48.801Z,10.43
2018-10-16T09:42:18.609Z,8.60
2018-10-16T09:44:48.441Z,10.47
2018-10-16T09:47:34.353Z,10.03
2018-10-16T09:50:04.386Z,9.03
2018-10-16T09:52:34.253Z,10.33
2018-10-16T09:55:08.541Z,9.10
2018-10-16T09:57:40.316Z,9.37
2018-10-16T10:00:17.441Z,9.33
2018-10-16T10:02:47.289Z,10.17
2018-10-16T10:05:19.057Z,8.23
2018-10-16T10:07:51.943Z,9.80
2018-10-16T10:10:25.767Z,8.60
2018-10-16T10:12:58.952Z,9.27
2018-10-16T10:15:36.057Z,9.10
2018-10-16T10:18:05.952Z,9.23
2018-10-16T10:20:35.788Z,8.10
2018-10-16T10:23:09.768Z,8.60
2018-10-16T10:25:49.133Z,9.10
2018-10-16T10:28:24.977Z,9.30
2018-10-16T10:30:54.545Z,9.13
2018-10-16T10:33:24.257Z,8.50
2018-10-16T10:35:53.856Z,8.70
2018-10-16T10:38:23.533Z,8.27
2018-10-16T10:40:53.382Z,7.60
2018-10-16T10:43:22.912Z,9.00
2018-10-16T10:45:56.844Z,9.37
2018-10-16T10:48:27.533Z,9.00
2018-10-16T10:50:58.586Z,8.97
2018-10-16T10:53:28.148Z,10.20
2018-10-16T10:55:58.943Z,8.80
2018-10-16T10:58:30.761Z,9.17
2018-10-16T11:01:00.620Z,9.30
2018-10-16T11:03:33.750Z,8.40
2018-10-16T11:06:03.357Z,9.30
2018-10-16T11:08:34.098Z,10.13
2018-10-16T11:11:07.344Z,8.60
2018-10-16T11:13:39.357Z,9.40
2018-10-16T11:16:09.004Z,8.53
2018-10-16T11:18:38.744Z,8.67
2018-10-16T11:21:08.503Z,8.90
2018-10-16T11:23:38.209Z,8.27
2018-10-16T11:26:11.504Z,8.30
2018-10-16T11:28:42.278Z,7.60
2018-10-16T11:31:12.156Z,8.03
2018-10-16T11:33:46.118Z,7.73
2018-10-16T11:36:15.985Z,7.03
2018-10-16T11:38:46.531Z,7.90
2018-10-16T11:41:16.324Z,6.90
2018-10-16T11:43:46.144Z,6.70
2018-10-16T11:46:19.429Z,6.63
2018-10-16T11:48:52.820Z,6.80
2018-10-16T11:51:22.638Z,6.60
2018-10-16T11:53:52.432Z,7.00
2018-10-16T11:56:26.768Z,6.77
2018-10-16T11:58:57.472Z,6.67
2018-10-16T12:01:31.507Z,7.00
2018-10-16T12:04:01.004Z,7.60
2018-10-16T12:06:31.774Z,6.30
2018-10-16T12:09:01.292Z,6.73
2018-10-16T12:11:32.056Z,6.20
2018-10-16T12:14:01.651Z,7.73
2018-10-16T12:16:34.482Z,7.33
2018-10-16T12:19:08.120Z,7.70
2018-10-16T12:21:40.872Z,7.30
2018-10-16T12:24:10.735Z,8.20
2018-10-16T12:26:42.513Z,7.93
2018-10-16T12:29:18.028Z,8.50
2018-10-16T12:31:48.788Z,7.70
2018-10-16T12:34:18.597Z,7.40
2018-10-16T12:36:49.268Z,6.93
2018-10-16T12:39:19.070Z,7.80
2018-10-16T12:41:49.793Z,8.27
2018-10-16T12:44:19.556Z,7.80
2018-10-16T12:46:50.350Z,7.77
2018-10-16T12:49:20.145Z,7.80
2018-10-16T12:51:53.701Z,7.17
2018-10-16T12:54:24.513Z,7.33
2018-10-16T12:56:56.230Z,7.53
2018-10-16T12:59:25.789Z,7.33
2018-10-16T13:01:55.649Z,7.00
2018-10-16T13:04:25.466Z,6.90
2018-10-16T13:07:00.392Z,7.77
2018-10-16T13:09:33.372Z,7.80
2018-10-16T13:12:06.772Z,6.80
2018-10-16T13:14:37.544Z,6.57
2018-10-16T13:17:10.510Z,7.33
2018-10-16T13:19:40.317Z,8.03
2018-10-16T13:22:09.938Z,6.57
2018-10-16T13:24:39.608Z,7.03
2018-10-16T13:27:10.456Z,6.33
2018-10-16T13:29:40.417Z,5.90
2018-10-16T13:32:10.147Z,5.20
2018-10-16T13:34:40.060Z,6.77
2018-10-16T13:37:09.916Z,6.97
2018-10-16T13:39:39.712Z,6.20
2018-10-16T13:42:10.592Z,5.23
2018-10-16T13:44:40.160Z,5.50
2018-10-16T13:47:09.860Z,6.20
2018-10-16T13:49:40.708Z,5.83
2018-10-16T13:52:10.508Z,5.43
2018-10-16T13:54:40.324Z,5.90
2018-10-16T13:57:10.144Z,5.83
2018-10-16T13:59:43.340Z,5.90
2018-10-16T14:02:13.219Z,5.60
2018-10-16T14:04:43.994Z,5.90
2018-10-16T14:07:13.784Z,5.73
2018-10-16T14:09:43.963Z,5.53
2018-10-16T14:12:13.968Z,5.20
2018-10-16T14:14:43.840Z,6.03
2018-10-16T14:17:18.049Z,5.60
2018-10-16T14:19:49.608Z,5.73
2018-10-16T14:22:19.328Z,6.07
2018-10-16T14:24:49.116Z,5.77
2018-10-16T14:27:22.408Z,6.70
2018-10-16T14:29:52.920Z,6.60
2018-10-16T14:32:26.884Z,6.03
2018-10-16T14:34:56.440Z,6.00
2018-10-16T14:37:26.113Z,6.23
2018-10-16T14:40:00.349Z,5.67
2018-10-16T14:42:29.900Z,5.90
2018-10-16T14:45:00.625Z,5.40
2018-10-16T14:47:33.920Z,6.10
2018-10-16T14:50:03.804Z,6.43
2018-10-16T14:52:33.560Z,5.93
2018-10-16T14:55:03.339Z,5.30
2018-10-16T14:57:34.179Z,6.07
2018-10-16T15:00:12.068Z,6.27
2018-10-16T15:02:47.308Z,5.53
2018-10-16T15:05:20.315Z,5.53
2018-10-16T15:07:50.837Z,6.10
2018-10-16T15:10:24.809Z,5.00
2018-10-16T15:12:54.552Z,5.60
2018-10-16T15:15:24.092Z,5.63
2018-10-16T15:17:59.636Z,5.63
2018-10-16T15:20:31.260Z,6.40
2018-10-16T15:23:00.700Z,5.33
2018-10-16T15:25:33.544Z,5.57
2018-10-16T15:28:03.831Z,5.93
2018-10-16T15:30:36.455Z,6.60
2018-10-16T15:33:06.160Z,7.00
2018-10-16T15:35:36.937Z,7.00
2018-10-16T15:38:06.723Z,6.67
2018-10-16T15:40:37.541Z,5.83
2018-10-16T15:43:09.095Z,7.60
2018-10-16T15:45:38.808Z,5.90
2018-10-16T15:48:12.118Z,6.33
2018-10-16T15:50:41.815Z,6.97
2018-10-16T15:53:16.341Z,5.87
2018-10-16T15:55:58.293Z,6.80
2018-10-16T15:58:29.096Z,7.10
2018-10-16T16:00:58.865Z,6.90
2018-10-16T16:03:28.688Z,5.60
2018-10-16T16:05:59.587Z,7.73
2018-10-16T16:08:30.357Z,7.13
2018-10-16T16:11:00.556Z,7.07
2018-10-16T16:13:30.077Z,7.17
2018-10-16T16:16:03.363Z,6.43
2018-10-16T16:18:36.225Z,6.87
2018-10-16T16:21:09.981Z,6.97
2018-10-16T16:23:40.393Z,7.57
2018-10-16T16:26:10.908Z,6.40
2018-10-16T16:28:40.413Z,7.23
2018-10-16T16:31:11.880Z,7.43
2018-10-16T16:33:42.841Z,9.50
2018-10-16T16:36:13.481Z,8.50
2018-10-16T16:38:45.800Z,8.63
2018-10-16T16:41:18.600Z,7.40
2018-10-16T16:43:48.523Z,8.50
2018-10-16T16:46:19.245Z,7.20
2018-10-16T16:48:59.553Z,7.80
2018-10-16T16:51:30.140Z,7.30
2018-10-16T16:53:59.624Z,7.63
2018-10-16T16:56:31.432Z,6.70
2018-10-16T16:59:10.590Z,7.30
2018-10-16T17:01:45.720Z,7.57
2018-10-16T17:04:16.185Z,6.90
2018-10-16T17:06:45.904Z,8.00
2018-10-16T17:09:16.740Z,7.37
2018-10-16T17:11:46.587Z,6.97
2018-10-16T17:14:18.413Z,7.50
2018-10-16T17:16:50.248Z,7.43
2018-10-16T17:19:22.128Z,7.53
2018-10-16T17:21:55.184Z,7.17
2018-10-16T17:24:25.836Z,7.23
2018-10-16T17:26:55.536Z,6.90
2018-10-16T17:29:28.996Z,8.03
2018-10-16T17:31:59.788Z,7.93
2018-10-16T17:34:33.412Z,8.40
2018-10-16T17:37:03.202Z,8.33
2018-10-16T17:39:33.008Z,7.37
2018-10-16T17:42:03.668Z,7.07
2018-10-16T17:44:34.172Z,8.50
2018-10-16T17:47:08.524Z,7.53
2018-10-16T17:49:42.792Z,8.00
2018-10-16T17:52:12.508Z,8.37
2018-10-16T17:54:47.028Z,8.07
2018-10-16T17:57:17.004Z,8.53
2018-10-16T17:59:48.822Z,9.83
2018-10-16T18:02:18.628Z,8.83
2018-10-16T18:04:50.484Z,10.10
2018-10-16T18:07:20.304Z,10.37
2018-10-16T18:09:49.904Z,8.93
2018-10-16T18:12:20.420Z,8.90
2018-10-16T18:14:51.298Z,7.87
2018-10-16T18:17:22.118Z,7.77
2018-10-16T18:19:53.968Z,8.33
2018-10-16T18:22:23.776Z,7.90
2018-10-16T18:24:53.592Z,7.90
2018-10-16T18:27:24.216Z,8.00
2018-10-16T18:29:59.244Z,8.60
2018-10-16T18:32:34.488Z,7.90
2018-10-16T18:35:05.484Z,8.57
2018-10-16T18:37:47.426Z,8.10
2018-10-16T18:40:20.441Z,8.57
2018-10-16T18:42:51.280Z,8.30
2018-10-16T18:45:22.324Z,7.37
2018-10-16T18:47:54.247Z,9.10
2018-10-16T18:50:29.672Z,8.90
2018-10-16T18:52:59.324Z,8.57
2018-10-16T18:55:30.076Z,9.00
2018-10-16T18:57:59.680Z,8.90
2018-10-16T19:00:29.260Z,9.53
2018-10-16T19:02:58.831Z,10.60
2018-10-16T19:05:29.774Z,11.30
2018-10-16T19:07:59.439Z,10.03
2018-10-16T19:10:29.961Z,10.10
2018-10-16T19:13:02.040Z,10.60
2018-10-16T19:15:32.980Z,10.00
2018-10-16T19:18:03.576Z,10.90
2018-10-16T19:20:34.831Z,12.50
2018-10-16T19:23:16.440Z,12.30
2018-10-16T19:25:48.104Z,11.60
2018-10-16T19:28:19.960Z,11.30
2018-10-16T19:30:52.403Z,11.47
2018-10-16T19:33:25.952Z,12.07
2018-10-16T19:36:02.232Z,11.60
2018-10-16T19:38:35.347Z,11.97
2018-10-16T19:41:05.327Z,12.50
2018-10-16T19:43:35.184Z,10.83
2018-10-16T19:46:05.166Z,12.63
2018-10-16T19:48:34.816Z,12.20
2018-10-16T19:51:05.680Z,12.83
2018-10-16T19:53:39.052Z,11.47
2018-10-16T19:56:10.968Z,11.57
2018-10-16T19:58:41.848Z,11.50
2018-10-16T20:01:12.451Z,10.90
2018-10-16T20:03:42.183Z,13.00
2018-10-16T20:06:13.003Z,15.70
2018-10-16T20:08:43.857Z,13.77
2018-10-16T20:11:14.687Z,13.40
2018-10-16T20:13:45.516Z,14.40
2018-10-16T20:16:15.344Z,11.83
2018-10-16T20:18:45.196Z,13.10
2018-10-16T20:21:14.856Z,14.73
2018-10-16T20:23:44.657Z,13.77
2018-10-16T20:26:15.508Z,13.10
2018-10-16T20:28:47.383Z,10.97
2018-10-16T20:31:17.272Z,10.20
2018-10-16T20:33:49.128Z,11.20
2018-10-16T20:36:20.106Z,10.10
2018-10-16T20:38:50.001Z,12.67
2018-10-16T20:41:21.833Z,12.80
2018-10-16T20:43:56.824Z,12.20
2018-10-16T20:46:32.367Z,12.37
2018-10-16T20:49:06.543Z,11.43
2018-10-16T20:51:37.240Z,12.57
2018-10-16T20:54:07.900Z,11.50
2018-10-16T20:56:38.652Z,12.80
2018-10-16T20:59:09.120Z,12.60
2018-10-16T21:01:48.767Z,12.67
2018-10-16T21:04:18.794Z,11.73
2018-10-16T21:06:50.612Z,12.43
2018-10-16T21:09:20.198Z,11.53
2018-10-16T21:11:53.583Z,11.83
2018-10-16T21:14:28.214Z,12.13
2018-10-16T21:16:58.085Z,12.47
2018-10-16T21:19:28.124Z,12.73
2018-10-16T21:21:58.120Z,12.07
2018-10-16T21:24:28.903Z,12.23
2018-10-16T21:27:08.169Z,13.43
2018-10-16T21:29:38.095Z,12.60
2018-10-16T21:32:10.338Z,12.00
2018-10-16T21:34:42.955Z,12.57
2018-10-16T21:37:14.096Z,11.37
2018-10-16T21:39:44.898Z,12.57
2018-10-16T21:42:20.226Z,12.30
2018-10-16T21:44:50.301Z,11.20
2018-10-16T21:47:24.072Z,12.67
2018-10-16T21:49:54.776Z,11.67
2018-10-16T21:52:26.407Z,12.80
2018-10-16T21:54:57.187Z,11.97
2018-10-16T21:57:27.202Z,13.47
2018-10-16T21:59:57.242Z,13.33
2018-10-16T22:02:37.170Z,12.90
2018-10-16T22:05:07.924Z,12.77
2018-10-16T22:07:38.496Z,12.83
2018-10-16T22:10:09.199Z,12.77
2018-10-16T22:12:39.016Z,13.40
2018-10-16T22:15:09.953Z,13.07
2018-10-16T22:17:40.700Z,13.13
2018-10-16T22:20:14.731Z,12.47
2018-10-16T22:22:45.531Z,12.67
2018-10-16T22:25:20.167Z,12.27
2018-10-16T22:27:53.441Z,11.57
2018-10-16T22:30:23.183Z,12.23
2018-10-16T22:32:55.040Z,12.00
2018-10-16T22:35:24.830Z,12.03
2018-10-16T22:37:54.679Z,12.53
2018-10-16T22:40:24.603Z,11.90
2018-10-16T22:42:54.509Z,13.20
2018-10-16T22:45:26.375Z,14.43
2018-10-16T22:47:56.163Z,14.20
2018-10-16T22:50:26.937Z,13.40
2018-10-16T22:52:57.442Z,13.27
2018-10-16T22:55:27.973Z,12.83
2018-10-16T22:57:57.563Z,14.30
2018-10-16T23:00:28.108Z,13.50
2018-10-16T23:02:58.718Z,12.83
2018-10-16T23:05:28.320Z,15.13
2018-10-16T23:07:57.946Z,14.53
2018-10-16T23:10:32.090Z,13.87
2018-10-16T23:13:07.966Z,15.50
2018-10-16T23:15:37.958Z,13.70
2018-10-16T23:18:07.722Z,15.57
2018-10-16T23:20:37.778Z,13.70
2018-10-16T23:23:08.817Z,14.63
2018-10-16T23:25:38.728Z,14.30
2018-10-16T23:28:08.762Z,15.30
2018-10-16T23:30:38.782Z,13.97
2018-10-16T23:33:15.745Z,14.67
2018-10-16T23:35:47.727Z,13.90
2018-10-16T23:38:21.790Z,13.87
2018-10-16T23:40:52.690Z,14.37
2018-10-16T23:43:22.802Z,14.20
2018-10-16T23:45:53.710Z,13.73
2018-10-16T23:48:24.422Z,13.90
2018-10-16T23:50:54.381Z,13.90
2018-10-16T23:53:24.362Z,13.97
2018-10-16T23:55:56.106Z,14.27
2018-10-16T23:58:26.942Z,14.87
